Time;durP1;ratioP1;P1;durP2;ratioP2;P2;SDS_P1;SDS_P2;PMS_P1;PMS_P2;Temp;Humidity;BMP_temperature;BMP_pressure;BME280_temperature;BME280_humidity;BME280_pressure;Samples;Min_cycle;Max_cycle;Signal;HPM_P1;HPM_P2
2023/02/19 00:03:53;;;;;;;0.75;0.20;;;;;;;8.94;75.53;97773.72;10533059;28;20052;-75
2023/02/19 00:09:15;;;;;;;1.92;0.30;;;;;;;8.81;75.27;97775.63;10538756;28;20122;-75
2023/02/19 00:14:36;;;;;;;2.13;0.28;;;;;;;8.68;77.08;97773.22;10539046;28;20047;-76
2023/02/19 00:19:57;;;;;;;1.00;0.30;;;;;;;8.57;78.17;97777.28;10538641;28;20050;-77
2023/02/19 00:25:19;;;;;;;1.30;0.50;;;;;;;8.53;78.07;97806.88;10552309;28;20047;-78
2023/02/19 00:30:40;;;;;;;1.35;0.70;;;;;;;8.63;78.29;97790.22;10552536;28;20114;-78
2023/02/19 00:36:02;;;;;;;1.90;0.80;;;;;;;8.64;78.36;97789.63;10566118;28;20040;-78
2023/02/19 00:41:23;;;;;;;1.50;0.60;;;;;;;8.58;78.71;97783.59;10551975;28;20044;-78
2023/02/19 00:46:46;;;;;;;1.50;0.50;;;;;;;8.61;78.04;97774.09;10551883;28;20048;-76
2023/02/19 00:52:06;;;;;;;2.38;0.70;;;;;;;8.56;78.82;97775.09;10552115;28;20048;-76
2023/02/19 00:57:27;;;;;;;1.63;0.55;;;;;;;8.51;78.44;97762.22;10537824;28;20118;-78
2023/02/19 01:02:48;;;;;;;0.63;0.40;;;;;;;8.46;78.58;97763.94;10537572;28;20048;-76
2023/02/19 01:08:09;;;;;;;2.28;0.47;;;;;;;8.44;78.54;97761.00;10550105;28;20039;-78
2023/02/19 01:13:30;;;;;;;2.03;0.38;;;;;;;8.41;78.41;97767.75;10551288;28;20040;-78
2023/02/19 01:18:51;;;;;;;1.50;0.40;;;;;;;8.44;78.78;97760.28;10565716;28;20382;-78
2023/02/19 01:24:12;;;;;;;2.33;0.50;;;;;;;8.46;78.65;97741.69;10551174;28;20408;-78
2023/02/19 01:29:33;;;;;;;1.20;0.60;;;;;;;8.49;78.55;97734.22;10551129;28;20397;-78
2023/02/19 01:34:54;;;;;;;1.20;0.60;;;;;;;8.50;78.56;97724.59;10550953;28;20036;-78
2023/02/19 01:40:15;;;;;;;3.67;0.70;;;;;;;8.53;78.53;97715.78;10550812;28;20491;-78
2023/02/19 01:45:38;;;;;;;1.30;0.50;;;;;;;8.54;78.33;97702.63;10550823;28;20484;-78
2023/02/19 01:51:03;;;;;;;1.92;0.60;;;;;;;8.54;78.64;97719.31;10550526;28;20058;-78
2023/02/19 01:56:24;;;;;;;1.88;0.50;;;;;;;8.63;78.62;97703.94;10553442;28;20545;-78
2023/02/19 02:01:45;;;;;;;1.48;0.50;;;;;;;8.66;78.18;97692.38;10550642;28;20432;-78
2023/02/19 02:10:18;;;;;;;2.30;0.68;;;;;;;8.64;78.43;97681.09;10540088;28;20044;-79
2023/02/19 02:12:48;;;;;;;1.17;0.52;;;;;;;8.70;78.49;97673.22;10571202;27;20044;-78
2023/02/19 02:18:29;;;;;;;2.13;0.70;;;;;;;8.70;77.84;97676.00;10556902;28;20393;-78
2023/02/19 02:24:14;;;;;;;3.42;0.55;;;;;;;8.75;78.21;97658.25;10556787;28;20039;-77
2023/02/19 02:29:54;;;;;;;1.30;0.70;;;;;;;8.77;78.41;97652.09;10559362;28;20055;-75
2023/02/19 02:35:19;;;;;;;0.70;0.40;;;;;;;8.77;77.95;97636.13;10556742;28;20048;-75
2023/02/19 02:40:41;;;;;;;1.80;0.98;;;;;;;8.75;78.41;97597.03;10556610;28;20044;-78
2023/02/19 02:46:04;;;;;;;0.82;0.57;;;;;;;8.74;78.35;97603.94;10556677;28;20039;-78
2023/02/19 02:51:32;;;;;;;1.23;0.73;;;;;;;8.75;78.24;97587.97;10542497;28;20092;-78
2023/02/19 02:57:00;;;;;;;2.17;1.07;;;;;;;8.75;78.41;97583.13;10557923;28;20097;-76
2023/02/19 03:02:26;;;;;;;2.25;0.90;;;;;;;8.75;78.26;97597.03;10541426;28;20610;-75
2023/02/19 03:07:58;;;;;;;2.27;1.20;;;;;;;8.70;78.13;97586.94;10555363;28;20110;-76
2023/02/19 03:19:19;;;;;;;1.70;1.40;;;;;;;8.67;78.27;97531.72;10547053;28;20039;-77
2023/02/19 03:30:28;;;;;;;1.92;1.30;;;;;;;8.59;78.01;97540.97;10545920;28;20044;-78
2023/02/19 03:35:52;;;;;;;2.58;1.27;;;;;;;8.64;78.31;97535.69;10540577;28;20039;-78
2023/02/19 03:41:34;;;;;;;2.90;1.65;;;;;;;8.62;77.98;97519.59;10554088;28;20039;-78
2023/02/19 03:47:16;;;;;;;1.77;1.45;;;;;;;8.63;78.24;97515.47;10540029;28;20405;-78
2023/02/19 03:52:42;;;;;;;2.03;1.20;;;;;;;8.66;77.82;97528.22;10540768;28;20044;-78
2023/02/19 03:58:14;;;;;;;1.48;1.15;;;;;;;8.63;78.00;97525.88;10553132;28;20043;-78
2023/02/19 04:03:45;;;;;;;3.85;1.50;;;;;;;8.65;77.63;97540.66;10553372;28;20113;-78
2023/02/19 04:09:08;;;;;;;1.92;1.10;;;;;;;8.71;77.74;97532.75;10539445;28;20040;-78
2023/02/19 04:14:37;;;;;;;1.98;1.52;;;;;;;8.74;77.52;97525.28;10539421;28;20043;-75
2023/02/19 04:19:58;;;;;;;4.10;1.30;;;;;;;8.77;77.37;97526.88;10553210;28;20080;-75
2023/02/19 04:25:19;;;;;;;1.88;1.38;;;;;;;8.83;77.25;97524.53;10538526;28;20044;-75
2023/02/19 04:30:41;;;;;;;2.40;1.60;;;;;;;8.86;76.97;97510.16;10538675;28;20036;-75
2023/02/19 04:36:02;;;;;;;2.00;1.42;;;;;;;8.96;76.91;97512.91;10552500;28;20047;-75
2023/02/19 04:41:23;;;;;;;2.47;1.60;;;;;;;8.99;76.38;97511.03;10538558;28;20047;-76
2023/02/19 04:46:44;;;;;;;2.42;1.50;;;;;;;9.03;76.13;97512.03;10538053;28;20046;-75
2023/02/19 04:52:05;;;;;;;2.80;1.50;;;;;;;9.09;75.57;97508.94;10538193;28;20567;-75
2023/02/19 04:57:26;;;;;;;2.33;1.30;;;;;;;9.07;76.09;97500.44;10552250;28;20058;-75
2023/02/19 05:02:47;;;;;;;1.88;1.67;;;;;;;9.07;75.70;97511.56;10537976;28;20063;-75
2023/02/19 05:08:08;;;;;;;1.85;1.48;;;;;;;9.11;75.83;97495.16;10536912;28;20039;-76
2023/02/19 05:13:29;;;;;;;2.05;1.38;;;;;;;9.12;75.54;97486.19;10530486;28;20503;-76
2023/02/19 05:18:50;;;;;;;3.95;1.85;;;;;;;9.13;75.36;97498.06;10533138;28;20481;-76
2023/02/19 05:24:11;;;;;;;2.47;1.85;;;;;;;9.13;75.32;97489.72;10533992;28;20040;-77
2023/02/19 05:29:34;;;;;;;2.72;1.60;;;;;;;9.17;75.42;97498.38;10554096;28;20039;-77
2023/02/19 05:35:00;;;;;;;1.75;1.38;;;;;;;9.18;75.19;97499.81;10540841;28;20039;-77
2023/02/19 05:40:21;;;;;;;2.78;1.60;;;;;;;9.18;75.00;97499.81;10542047;28;20039;-77
2023/02/19 05:45:42;;;;;;;2.88;1.75;;;;;;;9.17;75.24;97504.66;10538976;28;20065;-77
2023/02/19 05:51:04;;;;;;;3.45;1.90;;;;;;;9.13;74.88;97498.06;10542300;28;20043;-76
2023/02/19 05:56:32;;;;;;;2.15;1.60;;;;;;;9.09;75.24;97486.66;10565165;28;20401;-76
2023/02/19 06:01:54;;;;;;;1.60;1.40;;;;;;;9.12;75.26;97485.47;10555770;28;20047;-77
2023/02/19 06:07:15;;;;;;;1.95;1.10;;;;;;;9.14;75.07;97493.97;10553545;28;20443;-76
2023/02/19 06:12:36;;;;;;;1.17;0.80;;;;;;;9.17;74.95;97490.75;10538303;28;20492;-76
2023/02/19 06:17:57;;;;;;;1.98;0.93;;;;;;;9.17;74.79;97487.22;10553484;28;20039;-77
2023/02/19 06:23:18;;;;;;;1.15;0.88;;;;;;;9.14;74.45;97482.81;10555081;28;20043;-77
2023/02/19 06:28:40;;;;;;;1.33;0.68;;;;;;;9.17;74.12;97487.97;10541638;28;20096;-77
2023/02/19 06:34:03;;;;;;;1.48;0.95;;;;;;;9.26;73.91;97496.84;10553475;28;20039;-76
2023/02/19 06:39:25;;;;;;;1.33;0.90;;;;;;;9.40;73.83;97492.97;10534792;28;20477;-77
2023/02/19 06:44:46;;;;;;;1.20;0.60;;;;;;;9.81;73.37;97489.38;10534818;28;20048;-76
2023/02/19 06:50:07;;;;;;;1.20;0.50;;;;;;;10.00;71.55;97487.19;10539707;28;20039;-77
2023/02/19 06:55:27;;;;;;;0.55;0.40;;;;;;;9.90;71.43;97499.75;10534689;28;20027;-77
2023/02/19 07:00:48;;;;;;;1.15;0.52;;;;;;;9.74;71.30;97493.81;10549067;28;20036;-77
2023/02/19 07:06:09;;;;;;;1.42;0.60;;;;;;;9.72;72.02;97471.41;10483060;28;20448;-76
2023/02/19 07:11:32;;;;;;;1.13;0.40;;;;;;;9.77;71.40;97498.22;10485461;28;20036;-76
2023/02/19 07:16:53;;;;;;;1.45;0.47;;;;;;;9.86;70.92;97497.44;10527793;28;20473;-77
2023/02/19 07:22:13;;;;;;;1.58;0.70;;;;;;;9.97;70.44;97527.44;10525192;28;20047;-76
2023/02/19 07:27:34;;;;;;;1.67;0.60;;;;;;;10.13;70.24;97524.97;10499373;28;20081;-77
2023/02/19 07:32:55;;;;;;;0.40;0.32;;;;;;;10.17;69.58;97546.84;10499407;28;20491;-77
2023/02/19 07:38:17;;;;;;;0.80;0.50;;;;;;;10.07;69.43;97537.81;10497969;28;20040;-78
2023/02/19 07:43:38;;;;;;;0.63;0.35;;;;;;;10.01;69.50;97552.78;10471861;28;20044;-78
2023/02/19 07:48:59;;;;;;;1.15;0.50;;;;;;;10.15;69.48;97555.81;10471140;28;20498;-78
2023/02/19 07:54:20;;;;;;;1.33;0.57;;;;;;;10.55;69.06;97573.75;10471857;28;20052;-78
2023/02/19 07:59:40;;;;;;;2.55;0.73;;;;;;;10.77;68.82;97603.09;10499782;28;20040;-79
2023/02/19 08:05:03;;;;;;;1.75;0.75;;;;;;;10.45;69.37;97610.09;10462221;28;20072;-75
2023/02/19 08:16:12;;;;;;;1.95;0.75;;;;;;;9.71;72.33;97634.38;10537353;28;20473;-78
2023/02/19 08:21:46;;;;;;;3.17;0.80;;;;;;;9.54;74.91;97637.38;10509439;28;20473;-78
2023/02/19 08:27:07;;;;;;;1.33;0.60;;;;;;;9.40;74.32;97637.84;10526571;28;20044;-78
2023/02/19 08:32:28;;;;;;;2.38;0.75;;;;;;;9.35;74.78;97647.22;10510702;28;20477;-77
2023/02/19 08:37:49;;;;;;;2.28;0.88;;;;;;;9.48;75.05;97643.25;10544442;28;20081;-80
2023/02/19 08:43:12;;;;;;;1.92;0.57;;;;;;;9.55;76.77;97638.81;10513010;28;20090;-77
2023/02/19 08:48:33;;;;;;;1.83;0.60;;;;;;;9.59;75.34;97630.75;10501212;28;20052;-77
2023/02/19 08:53:54;;;;;;;2.33;0.68;;;;;;;9.83;75.86;97632.41;10510279;28;20063;-77
2023/02/19 08:59:15;;;;;;;2.00;0.57;;;;;;;10.09;75.53;97619.53;10491282;28;20045;-77
2023/02/19 09:04:37;;;;;;;1.90;0.50;;;;;;;10.27;74.45;97625.63;10493488;28;20060;-76
2023/02/19 09:10:02;;;;;;;1.08;0.60;;;;;;;10.35;74.23;97634.56;10521630;28;20055;-77
2023/02/19 09:15:23;;;;;;;4.75;0.30;;;;;;;10.32;74.08;97636.47;10545448;28;20097;-76
2023/02/19 09:20:44;;;;;;;0.95;0.22;;;;;;;10.22;74.35;97649.72;10544576;28;20040;-76
2023/02/19 09:26:08;;;;;;;1.85;0.32;;;;;;;10.23;74.50;97661.63;10529989;28;20055;-76
2023/02/19 09:31:29;;;;;;;1.20;0.30;;;;;;;10.24;73.71;97661.03;10542652;28;20101;-76
2023/02/19 09:36:50;;;;;;;1.25;0.40;;;;;;;10.25;73.77;97672.94;10530141;28;20389;-75
2023/02/19 09:42:16;;;;;;;1.00;0.35;;;;;;;10.17;73.27;97683.50;10543624;28;20044;-76
2023/02/19 09:47:37;;;;;;;2.35;0.40;;;;;;;10.07;73.26;97682.81;10532326;28;20147;-76
2023/02/19 09:53:01;;;;;;;0.70;0.20;;;;;;;10.02;72.27;97693.69;10514738;28;20073;-76
2023/02/19 09:58:26;;;;;;;1.23;0.50;;;;;;;10.43;73.15;97695.75;10532683;28;20051;-76
2023/02/19 10:03:47;;;;;;;2.10;0.30;;;;;;;10.47;72.46;97707.91;10570465;28;20388;-76
2023/02/19 10:09:20;;;;;;;1.23;0.30;;;;;;;10.20;72.34;97705.34;10545815;28;20390;-75
2023/02/19 10:14:43;;;;;;;0.63;0.20;;;;;;;10.24;72.62;97718.91;10559656;28;20040;-75
2023/02/19 10:20:05;;;;;;;0.90;0.20;;;;;;;10.87;71.91;97734.25;10558711;28;20062;-75
2023/02/19 10:25:26;;;;;;;0.60;0.10;;;;;;;11.02;69.33;97747.84;10555640;28;20043;-75
2023/02/19 10:30:52;;;;;;;0.40;0.10;;;;;;;10.94;69.08;97752.16;10501843;28;20071;-76
2023/02/19 10:36:35;;;;;;;1.20;0.10;;;;;;;10.77;68.83;97765.03;10529548;28;20059;-75
2023/02/19 10:41:57;;;;;;;0.43;0.20;;;;;;;10.76;69.26;97771.22;10530341;28;20047;-75
2023/02/19 10:47:20;;;;;;;0.43;0.10;;;;;;;10.77;69.29;97789.44;10529062;28;20511;-75
2023/02/19 10:52:41;;;;;;;0.53;0.20;;;;;;;10.75;69.72;97804.00;10529115;28;20040;-76
2023/02/19 10:58:22;;;;;;;0.70;0.30;;;;;;;10.77;70.28;97806.91;10528449;28;20066;-74
2023/02/19 11:03:43;;;;;;;2.60;0.20;;;;;;;10.82;70.27;97828.22;10514018;28;20135;-73
2023/02/19 11:09:04;;;;;;;0.88;0.10;;;;;;;10.61;70.30;97833.72;10528158;28;20040;-75
2023/02/19 11:14:26;;;;;;;0.80;0.13;;;;;;;10.53;70.87;97841.56;10535377;28;20031;-76
2023/02/19 11:19:50;;;;;;;0.30;0.10;;;;;;;10.27;71.08;97851.59;10535352;28;20040;-73
2023/02/19 11:25:14;;;;;;;1.50;0.27;;;;;;;10.23;71.21;97865.25;10559388;28;20046;-73
2023/02/19 11:30:41;;;;;;;1.80;0.38;;;;;;;10.41;71.40;97863.03;10567947;28;20078;-76
2023/02/19 11:36:15;;;;;;;0.65;0.30;;;;;;;10.42;70.48;97878.44;10568873;28;20063;-75
2023/02/19 11:42:21;;;;;;;1.23;0.20;;;;;;;10.18;70.65;97883.03;10555082;28;20047;-76
2023/02/19 11:47:56;;;;;;;0.82;0.22;;;;;;;10.14;70.85;97889.06;10535478;28;20770;-74
2023/02/19 11:53:26;;;;;;;1.17;0.40;;;;;;;10.14;70.50;97905.06;10520014;28;20040;-75
2023/02/19 11:58:52;;;;;;;0.70;0.20;;;;;;;10.09;69.81;97904.03;10520495;28;20474;-74
2023/02/19 12:04:50;;;;;;;1.23;0.30;;;;;;;9.93;69.70;97925.88;10537771;28;20048;-76
2023/02/19 12:10:27;;;;;;;1.08;0.20;;;;;;;9.79;69.87;97933.22;10536319;28;20040;-75
2023/02/19 12:16:25;;;;;;;1.02;0.20;;;;;;;9.81;70.17;97941.00;10523739;28;20470;-76
2023/02/19 12:22:14;;;;;;;0.80;0.30;;;;;;;9.72;69.29;97950.81;10522568;28;20044;-75
2023/02/19 12:27:47;;;;;;;0.25;0.10;;;;;;;9.78;69.15;97965.22;10534242;28;20040;-75
2023/02/19 12:33:17;;;;;;;0.75;0.20;;;;;;;9.86;68.89;97976.97;10528070;28;20531;-76
2023/02/19 12:38:48;;;;;;;0.95;0.20;;;;;;;9.64;67.61;97992.03;10509902;28;20799;-75
2023/02/19 12:44:21;;;;;;;0.20;0.10;;;;;;;9.31;67.39;97991.63;10506692;28;20080;-75
2023/02/19 12:49:45;;;;;;;0.32;0.10;;;;;;;9.14;66.64;97998.00;10462275;28;20048;-74
2023/02/19 12:55:27;;;;;;;0.40;0.10;;;;;;;9.12;67.29;97998.59;10485047;28;20068;-73
2023/02/19 13:00:49;;;;;;;0.25;0.10;;;;;;;9.04;67.11;98000.00;10464170;28;20041;-73
2023/02/19 13:06:35;;;;;;;0.22;0.10;;;;;;;9.02;65.04;98011.00;10451408;28;20047;-74
2023/02/19 13:12:00;;;;;;;0.30;0.10;;;;;;;8.98;65.65;98005.13;10449003;28;20383;-74
2023/02/19 13:17:30;;;;;;;0.35;0.10;;;;;;;8.86;65.35;98011.19;10450896;28;20072;-73
2023/02/19 13:28:58;;;;;;;0.60;0.15;;;;;;;8.31;65.21;98043.03;10481881;28;20048;-74
2023/02/19 13:34:46;;;;;;;0.77;0.20;;;;;;;8.25;65.64;98056.44;10481902;28;20068;-73
2023/02/19 13:40:36;;;;;;;0.60;0.20;;;;;;;8.16;65.57;98065.41;10501374;28;20106;-73
2023/02/19 13:45:59;;;;;;;1.10;0.30;;;;;;;8.22;65.03;98074.25;10465297;28;20114;-74
2023/02/19 13:51:22;;;;;;;0.70;0.30;;;;;;;8.33;65.73;98075.81;10441072;28;20052;-73
2023/02/19 13:56:44;;;;;;;;;;;;;;;8.39;65.26;98072.81;10459908;28;20057;-74
2023/02/19 14:02:10;;;;;;;0.75;0.20;;;;;;;8.40;65.69;98077.09;10446297;28;19948;-73
2023/02/19 14:07:49;;;;;;;0.47;0.20;;;;;;;8.95;64.92;98073.09;10453538;28;20047;-73
2023/02/19 14:13:10;;;;;;;0.57;0.20;;;;;;;9.16;64.68;98082.44;10458003;28;20047;-75
2023/02/19 14:18:41;;;;;;;0.75;0.30;;;;;;;9.33;63.91;98097.66;10441461;28;20075;-73
2023/02/19 14:24:02;;;;;;;2.70;0.40;;;;;;;8.95;63.17;98112.81;10457144;28;20044;-74
2023/02/19 14:29:23;;;;;;;1.15;0.40;;;;;;;8.72;63.91;98118.66;10444021;28;20037;-74
2023/02/19 14:34:44;;;;;;;1.05;0.30;;;;;;;8.56;63.79;98117.34;10457728;28;20099;-74
2023/02/19 14:40:06;;;;;;;1.33;0.50;;;;;;;8.57;64.66;98125.09;10457235;28;20487;-73
2023/02/19 14:45:27;;;;;;;1.25;0.30;;;;;;;8.71;63.57;98122.75;10443436;28;20383;-74
2023/02/19 14:50:50;;;;;;;1.17;0.35;;;;;;;8.88;62.69;98124.78;10443217;28;20045;-74
2023/02/19 14:56:26;;;;;;;3.90;2.03;;;;;;;9.24;63.33;98138.06;10429107;28;20044;-74
2023/02/19 15:01:54;;;;;;;1.35;0.45;;;;;;;9.57;62.57;98155.28;10441666;28;20079;-75
2023/02/19 15:07:20;;;;;;;2.05;0.50;;;;;;;9.32;62.31;98163.78;10448867;28;20060;-74
2023/02/19 15:12:46;;;;;;;5.00;0.73;;;;;;;8.74;61.32;98165.38;10415191;28;20483;-74
2023/02/19 15:18:16;;;;;;;1.15;0.40;;;;;;;8.39;62.22;98181.28;10442148;28;20052;-74
2023/02/19 15:23:38;;;;;;;1.33;0.50;;;;;;;8.21;62.56;98184.03;10428593;28;20049;-72
2023/02/19 15:28:59;;;;;;;3.67;0.80;;;;;;;8.09;62.86;98208.03;10456176;28;20041;-77
2023/02/19 15:34:25;;;;;;;1.30;0.70;;;;;;;8.17;63.21;98208.69;10442015;28;20489;-75
2023/02/19 15:39:47;;;;;;;3.00;0.60;;;;;;;8.26;62.81;98208.06;10428705;28;20041;-76
2023/02/19 15:45:40;;;;;;;1.33;0.57;;;;;;;8.23;62.33;98222.41;10449726;28;20052;-74
2023/02/19 15:51:08;;;;;;;1.25;0.50;;;;;;;8.08;61.49;98225.28;10497157;28;20044;-75
2023/02/19 15:56:30;;;;;;;1.30;0.50;;;;;;;7.89;61.95;98232.06;10496838;28;20044;-75
2023/02/19 16:01:51;;;;;;;1.45;0.40;;;;;;;7.73;62.04;98225.88;10462492;28;20402;-74
2023/02/19 16:07:26;;;;;;;2.00;0.50;;;;;;;7.64;61.68;98234.06;10454672;28;20512;-76
2023/02/19 16:13:00;;;;;;;0.95;0.30;;;;;;;7.38;61.70;98236.03;10457848;28;20037;-76
2023/02/19 16:18:21;;;;;;;2.33;0.47;;;;;;;7.07;61.65;98249.28;10434810;28;20049;-76
2023/02/19 16:23:42;;;;;;;1.08;0.40;;;;;;;6.88;61.70;98248.94;10413380;28;20095;-75
2023/02/19 16:29:03;;;;;;;3.92;0.85;;;;;;;6.66;61.90;98252.47;10427091;28;20056;-74
2023/02/19 16:34:53;;;;;;;2.35;0.80;;;;;;;6.48;62.32;98263.41;10434290;28;20543;-75
2023/02/19 16:40:14;;;;;;;2.40;0.82;;;;;;;6.38;62.30;98268.03;10466225;28;20494;-76
2023/02/19 16:45:36;;;;;;;2.50;0.75;;;;;;;6.32;62.51;98264.69;10461907;28;20064;-75
2023/02/19 16:50:58;;;;;;;3.03;0.88;;;;;;;6.29;62.64;98283.19;10481090;28;20375;-74
2023/02/19 16:56:21;;;;;;;3.17;0.95;;;;;;;6.23;62.69;98296.47;10475380;28;20123;-74
2023/02/19 17:01:42;;;;;;;2.22;1.00;;;;;;;6.15;62.84;98301.25;10488948;28;20440;-74
2023/02/19 17:07:03;;;;;;;2.30;1.05;;;;;;;6.09;62.89;98319.38;10502687;28;20440;-74
2023/02/19 17:12:24;;;;;;;2.60;1.10;;;;;;;6.00;63.13;98329.69;10488449;28;20047;-75
2023/02/19 17:17:45;;;;;;;2.60;1.10;;;;;;;5.90;62.93;98325.22;10488300;28;20049;-74
2023/02/19 17:23:06;;;;;;;3.00;1.40;;;;;;;5.81;62.95;98347.91;10502191;28;20036;-73
2023/02/19 17:28:27;;;;;;;4.15;1.30;;;;;;;5.77;63.21;98366.88;10487535;28;20540;-73
2023/02/19 17:33:49;;;;;;;1.95;0.95;;;;;;;5.69;63.19;98372.38;10473793;28;20051;-74
2023/02/19 17:39:13;;;;;;;3.05;1.23;;;;;;;5.65;63.12;98374.78;10473789;28;20041;-74
2023/02/19 17:44:34;;;;;;;2.70;1.23;;;;;;;5.56;63.35;98387.09;10487133;28;20044;-74
2023/02/19 17:49:56;;;;;;;3.55;1.42;;;;;;;5.53;63.22;98390.97;10473259;28;20127;-73
2023/02/19 17:55:17;;;;;;;4.40;1.60;;;;;;;5.44;63.32;98375.59;10475598;28;20053;-75
2023/02/19 18:00:38;;;;;;;5.88;2.38;;;;;;;5.32;63.49;98379.94;10460915;28;20498;-75
2023/02/19 18:06:00;;;;;;;5.10;1.70;;;;;;;5.17;63.19;98391.66;10472289;28;20044;-74
2023/02/19 18:11:21;;;;;;;5.20;2.53;;;;;;;5.03;63.39;98408.91;10486154;28;20466;-76
2023/02/19 18:16:48;;;;;;;5.97;2.83;;;;;;;4.93;63.38;98418.97;10485711;28;20078;-73
2023/02/19 18:22:10;;;;;;;5.72;2.83;;;;;;;4.85;63.81;98427.94;10471675;28;20454;-77
2023/02/19 18:27:31;;;;;;;5.45;2.50;;;;;;;4.76;64.02;98442.22;10471638;28;20055;-77
2023/02/19 18:32:52;;;;;;;5.32;2.97;;;;;;;4.69;64.19;98456.72;10498881;28;20375;-77
2023/02/19 18:38:14;;;;;;;7.15;2.58;;;;;;;4.62;64.32;98468.44;10471277;28;20055;-74
2023/02/19 18:43:35;;;;;;;6.75;3.15;;;;;;;4.62;64.10;98481.50;10471145;28;20056;-73
2023/02/19 18:48:57;;;;;;;7.70;3.10;;;;;;;4.56;63.84;98485.16;10471424;28;20051;-75
2023/02/19 18:54:22;;;;;;;3.53;2.08;;;;;;;4.57;64.21;98480.38;10483913;28;20052;-76
2023/02/19 18:59:44;;;;;;;4.15;2.15;;;;;;;4.59;64.38;98484.09;10470860;28;20046;-75
2023/02/19 19:05:06;;;;;;;4.30;1.77;;;;;;;4.58;64.69;98499.19;10470102;28;20098;-76
2023/02/19 19:10:27;;;;;;;3.58;1.90;;;;;;;4.57;64.50;98483.13;10469964;28;20040;-75
2023/02/19 19:15:49;;;;;;;4.80;2.22;;;;;;;4.52;64.55;98492.28;10469678;28;20040;-77
2023/02/19 19:21:13;;;;;;;5.60;2.55;;;;;;;4.46;64.33;98475.09;10497480;28;20094;-76
2023/02/19 19:26:34;;;;;;;5.47;2.13;;;;;;;4.47;64.77;98479.34;10469419;28;20036;-76
2023/02/19 19:31:55;;;;;;;7.55;3.78;;;;;;;4.46;64.73;98494.44;10469642;28;20123;-76
2023/02/19 19:37:17;;;;;;;6.38;3.17;;;;;;;4.44;64.65;98505.28;10469312;28;20049;-76
2023/02/19 19:42:38;;;;;;;5.70;2.33;;;;;;;4.41;64.36;98509.13;10469131;28;20086;-76
2023/02/19 19:47:59;;;;;;;6.07;3.60;;;;;;;4.38;64.45;98512.97;10468828;28;20040;-76
2023/02/19 19:53:20;;;;;;;6.78;4.32;;;;;;;4.34;64.77;98518.06;10455143;28;20045;-76
2023/02/19 19:58:42;;;;;;;6.15;3.60;;;;;;;4.31;64.86;98528.16;10468777;28;20411;-76
2023/02/19 20:04:03;;;;;;;7.15;3.28;;;;;;;4.23;65.14;98521.78;10454679;28;20048;-76
2023/02/19 20:09:27;;;;;;;12.27;5.78;;;;;;;4.12;64.98;98508.94;10476585;28;20049;-76
2023/02/19 20:14:49;;;;;;;9.80;4.68;;;;;;;4.02;65.20;98499.59;10504783;28;20422;-76
2023/02/19 20:20:10;;;;;;;10.55;4.90;;;;;;;3.92;65.43;98504.81;10476615;28;20481;-76
2023/02/19 20:25:32;;;;;;;10.70;5.28;;;;;;;3.89;65.46;98513.41;10462123;28;20441;-75
2023/02/19 20:30:53;;;;;;;8.45;4.00;;;;;;;3.84;66.03;98515.00;10475977;28;20041;-76
2023/02/19 20:36:14;;;;;;;6.28;3.30;;;;;;;3.80;65.88;98522.88;10475972;28;20044;-77
2023/02/19 20:41:35;;;;;;;5.40;2.92;;;;;;;3.77;65.88;98539.75;10476661;28;20044;-76
2023/02/19 20:46:57;;;;;;;5.18;3.28;;;;;;;3.73;66.08;98549.09;10475686;28;20123;-75
2023/02/19 20:52:19;;;;;;;6.78;3.05;;;;;;;3.76;65.54;98539.00;10461356;28;20040;-76
2023/02/19 20:57:41;;;;;;;8.75;4.22;;;;;;;3.68;66.01;98538.16;10489785;28;20045;-76
2023/02/19 21:03:02;;;;;;;6.50;3.90;;;;;;;3.59;65.90;98541.31;10474783;28;20051;-76
2023/02/19 21:08:24;;;;;;;6.90;3.63;;;;;;;3.55;65.76;98546.41;10474533;28;20040;-77
2023/02/19 21:13:45;;;;;;;5.70;3.20;;;;;;;3.56;66.23;98554.16;10473176;28;20044;-77
2023/02/19 21:19:06;;;;;;;7.32;3.38;;;;;;;3.54;66.52;98567.00;10473855;28;20051;-77
2023/02/19 21:24:27;;;;;;;9.15;4.50;;;;;;;3.49;66.57;98568.59;10474398;28;20462;-75
2023/02/19 21:29:48;;;;;;;9.20;4.93;;;;;;;3.41;66.33;98570.47;10474084;28;20040;-75
2023/02/19 21:35:09;;;;;;;7.78;4.13;;;;;;;3.32;66.52;98568.13;10473903;28;20123;-75
2023/02/19 21:40:31;;;;;;;7.40;4.15;;;;;;;3.26;66.97;98570.94;10460094;28;20045;-74
2023/02/19 21:45:52;;;;;;;7.43;4.18;;;;;;;3.24;66.98;98567.22;10474345;28;20049;-77
2023/02/19 21:51:14;;;;;;;8.65;4.28;;;;;;;3.27;66.79;98571.69;10473477;28;20044;-77
2023/02/19 21:56:36;;;;;;;9.77;4.07;;;;;;;3.30;66.88;98568.63;10473193;28;20066;-77
2023/02/19 22:01:57;;;;;;;9.48;3.78;;;;;;;3.41;67.14;98576.00;10458426;28;20043;-77
2023/02/19 22:07:19;;;;;;;7.10;4.10;;;;;;;3.56;66.80;98579.00;10449497;28;20048;-77
2023/02/19 22:12:40;;;;;;;6.72;3.78;;;;;;;3.73;67.21;98575.97;10454817;28;20044;-77
2023/02/19 22:18:01;;;;;;;5.57;3.65;;;;;;;3.85;66.93;98573.75;10440548;28;20544;-76
2023/02/19 22:23:22;;;;;;;5.40;3.42;;;;;;;3.92;66.86;98578.66;10450077;28;20135;-77
2023/02/19 22:28:44;;;;;;;8.30;3.92;;;;;;;4.08;66.70;98590.69;10434822;28;20051;-77
2023/02/19 22:34:06;;;;;;;5.35;3.55;;;;;;;4.16;66.98;98575.69;10459574;28;20036;-77
2023/02/19 22:39:27;;;;;;;6.07;3.60;;;;;;;4.19;66.78;98568.34;10457451;28;20036;-76
2023/02/19 22:44:48;;;;;;;7.07;4.07;;;;;;;4.24;66.69;98565.47;10498959;28;20064;-74
2023/02/19 22:50:18;;;;;;;6.57;3.70;;;;;;;4.26;66.45;98573.25;10455197;28;20040;-75
2023/02/19 22:55:39;;;;;;;7.22;4.00;;;;;;;4.26;66.52;98571.22;10460845;28;20521;-76
2023/02/19 23:01:00;;;;;;;7.30;3.83;;;;;;;4.34;66.60;98567.81;10434910;28;20410;-77
2023/02/19 23:06:29;;;;;;;9.85;5.32;;;;;;;4.40;66.56;98576.75;10434399;28;20545;-77
2023/02/19 23:11:50;;;;;;;11.05;6.10;;;;;;;4.39;66.58;98578.03;10448308;28;20037;-77
2023/02/19 23:17:11;;;;;;;6.40;4.00;;;;;;;4.35;66.50;98580.38;10456358;28;20080;-77
2023/02/19 23:22:33;;;;;;;6.43;3.60;;;;;;;4.41;66.40;98572.69;10450802;28;20044;-77
2023/02/19 23:27:54;;;;;;;8.00;4.30;;;;;;;4.41;66.59;98565.16;10433601;28;20043;-77
2023/02/19 23:33:16;;;;;;;4.03;3.05;;;;;;;4.41;66.63;98558.88;10445602;28;20044;-77
2023/02/19 23:38:37;;;;;;;6.38;3.25;;;;;;;4.46;66.26;98547.72;10446828;28;20521;-76
2023/02/19 23:43:58;;;;;;;5.20;3.30;;;;;;;4.58;66.57;98546.19;10469048;28;20052;-76
2023/02/19 23:49:19;;;;;;;4.50;2.95;;;;;;;4.63;66.33;98533.50;10482987;28;20071;-76
2023/02/19 23:54:40;;;;;;;4.75;2.88;;;;;;;4.67;66.54;98545.00;10455572;28;20529;-76
